Time;durP1;ratioP1;P1;durP2;ratioP2;P2;SDS_P1;SDS_P2;PMS_P1;PMS_P2;Temp;Humidity;BMP_temperature;BMP_pressure;BME280_temperature;BME280_humidity;BME280_pressure;Samples;Min_cycle;Max_cycle;Signal;HPM_P1;HPM_P2
2023/09/24 00:02:12;;;;;;;;;;;16.80;48.90;;;15.90;51.27;101744.88;12245296;19;19914;-83
2023/09/24 00:06:14;;;;;;;;;;;16.70;48.90;;;15.82;51.24;101749.75;12246083;19;19926;-82
2023/09/24 00:10:16;;;;;;;;;;;16.60;48.80;;;15.73;51.11;101746.84;12242417;19;20324;-83
2023/09/24 00:14:18;;;;;;;;;;;16.50;48.80;;;15.65;51.03;101749.91;12246179;19;20308;-83
2023/09/24 00:18:20;;;;;;;;;;;16.50;48.90;;;15.48;51.10;101738.59;12243244;19;19923;-83
2023/09/24 00:22:21;;;;;;;;;;;16.40;49.00;;;15.51;51.11;101757.78;12243612;19;19990;-83
2023/09/24 00:26:24;;;;;;;;;;;16.30;49.00;;;15.47;51.23;101767.63;12254000;19;19922;-83
2023/09/24 00:30:27;;;;;;;;;;;16.20;48.90;;;15.13;51.10;101732.78;12254799;19;19927;-83
2023/09/24 00:34:28;;;;;;;;;;;16.20;48.90;;;15.34;51.24;101780.69;12255974;19;19935;-83
2023/09/24 00:38:30;;;;;;;;;;;16.10;48.90;;;15.23;51.17;101759.41;12255166;19;19947;-82
2023/09/24 00:42:32;;;;;;;;;;;16.10;49.00;;;15.25;51.12;101775.94;12255163;19;19982;-83
2023/09/24 00:46:33;;;;;;;;;;;16.00;49.00;;;15.16;51.20;101768.59;12256059;19;19923;-82
2023/09/24 00:50:41;;;;;;;;;;;16.00;49.00;;;15.14;51.31;101773.06;12252210;19;19918;-82
2023/09/24 00:54:43;;;;;;;;;;;16.00;49.10;;;15.12;51.29;101770.56;12255600;19;19937;-82
2023/09/24 00:58:47;;;;;;;;;;;16.00;49.20;;;15.08;51.36;101771.66;12252674;19;19923;-82
2023/09/24 01:02:50;;;;;;;;;;;15.90;49.10;;;15.10;51.46;101777.69;12251271;19;19929;-82
2023/09/24 01:06:51;;;;;;;;;;;15.90;49.20;;;15.08;51.38;101776.06;12254556;19;19928;-82
2023/09/24 01:10:58;;;;;;;;;;;15.90;49.20;;;15.08;51.48;101789.22;12250733;19;19914;-83
2023/09/24 01:14:59;;;;;;;;;;;15.90;49.20;;;15.02;51.41;101788.63;12254939;19;19994;-82
2023/09/24 01:19:01;;;;;;;;;;;15.90;49.20;;;15.02;51.30;101795.69;12250506;19;20436;-82
2023/09/24 01:23:06;;;;;;;;;;;15.90;49.30;;;15.03;51.45;101816.63;12250686;19;19919;-82
2023/09/24 01:27:08;;;;;;;;;;;15.80;49.30;;;14.90;51.59;101799.00;12249573;19;20269;-82
2023/09/24 01:31:10;;;;;;;;;;;15.80;49.30;;;14.98;51.53;101823.94;12246229;19;19919;-82
2023/09/24 01:35:11;;;;;;;;;;;15.80;49.30;;;14.95;51.56;101812.75;12247194;19;19971;-82
2023/09/24 01:39:17;;;;;;;;;;;15.80;49.30;;;14.98;51.58;101820.44;12251519;19;19915;-82
2023/09/24 01:43:19;;;;;;;;;;;15.80;49.30;;;15.01;51.54;101829.03;12250169;19;19934;-82
2023/09/24 01:47:22;;;;;;;;;;;15.90;49.30;;;14.91;51.53;101817.34;12246043;19;19926;-82
2023/09/24 01:51:23;;;;;;;;;;;15.90;49.30;;;14.93;51.52;101831.25;12247028;19;19949;-82
2023/09/24 01:55:26;;;;;;;;;;;15.90;49.30;;;14.88;51.61;101835.03;12250804;19;19915;-82
2023/09/24 01:59:28;;;;;;;;;;;15.90;49.30;;;14.92;51.59;101855.00;12249697;19;19923;-82
2023/09/24 02:03:30;;;;;;;;;;;15.80;49.20;;;14.92;51.62;101868.16;12248949;19;19915;-82
2023/09/24 02:07:32;;;;;;;;;;;15.80;49.20;;;14.84;51.56;101873.81;12250097;19;20340;-82
2023/09/24 02:11:33;;;;;;;;;;;15.80;49.20;;;14.83;51.60;101880.03;12248171;19;19911;-82
2023/09/24 02:15:38;;;;;;;;;;;15.80;49.20;;;14.68;51.72;101859.81;12249841;19;19914;-82
2023/09/24 02:19:44;;;;;;;;;;;15.70;49.10;;;14.69;51.81;101869.38;12247853;19;19921;-82
2023/09/24 02:23:46;;;;;;;;;;;15.60;49.10;;;14.62;51.87;101866.25;12248833;19;19930;-82
2023/09/24 02:27:50;;;;;;;;;;;15.60;49.10;;;14.62;51.62;101881.19;12249589;19;19946;-82
2023/09/24 02:31:54;;;;;;;;;;;15.50;49.10;;;14.59;51.76;101892.72;12245951;19;19997;-82
2023/09/24 02:35:55;;;;;;;;;;;15.50;49.10;;;14.54;51.57;101881.59;12247675;19;19960;-82
2023/09/24 02:39:57;;;;;;;;;;;15.40;49.10;;;14.48;51.66;101877.47;12244086;19;19919;-82
2023/09/24 02:44:01;;;;;;;;;;;15.40;49.10;;;14.14;51.76;101828.47;12246211;19;19918;-82
2023/09/24 02:48:05;;;;;;;;;;;15.40;49.20;;;14.35;51.73;101877.28;12244932;19;19926;-81
2023/09/24 02:52:08;;;;;;;;;;;15.30;49.20;;;14.35;51.63;101892.19;12246223;19;20333;-83
2023/09/24 02:56:09;;;;;;;;;;;15.30;49.20;;;14.22;51.67;101870.13;12247089;19;21098;-82
2023/09/24 03:00:20;;;;;;;;;;;15.20;49.20;;;14.30;51.80;101899.47;12245552;19;19925;-82
2023/09/24 03:04:21;;;;;;;;;;;15.20;49.20;;;14.26;51.86;101897.94;12244551;19;19925;-82
2023/09/24 03:08:23;;;;;;;;;;;15.20;49.20;;;14.05;51.75;101878.88;12245861;19;19919;-83
2023/09/24 03:12:25;;;;;;;;;;;15.10;49.10;;;14.06;51.75;101898.94;12243688;19;20439;-82
2023/09/24 03:16:28;;;;;;;;;;;15.10;49.10;;;14.11;51.82;101910.91;12246088;19;19914;-82
2023/09/24 03:20:30;;;;;;;;;;;15.00;49.10;;;13.96;51.87;101901.22;12243261;19;19926;-82
2023/09/24 03:24:31;;;;;;;;;;;15.00;49.20;;;14.05;52.02;101924.38;12240670;19;19933;-82
2023/09/24 03:28:32;;;;;;;;;;;14.90;49.30;;;14.02;51.94;101921.91;12241652;19;20627;-82
2023/09/24 03:32:36;;;;;;;;;;;14.90;49.30;;;13.99;51.98;101921.19;12241044;19;19941;-82
2023/09/24 03:36:39;;;;;;;;;;;14.90;49.40;;;14.02;52.02;101926.31;12240743;19;19986;-82
2023/09/24 03:40:41;;;;;;;;;;;14.90;49.40;;;13.98;51.98;101928.22;12238817;19;19922;-82
2023/09/24 03:44:42;;;;;;;;;;;14.90;49.40;;;14.01;51.96;101938.56;12241910;19;19926;-82
2023/09/24 03:48:44;;;;;;;;;;;14.90;49.40;;;13.92;51.97;101931.16;12241735;19;19942;-82
2023/09/24 03:52:48;;;;;;;;;;;14.90;49.50;;;13.86;52.14;101920.97;12244527;19;19921;-82
2023/09/24 03:56:49;;;;;;;;;;;14.90;49.70;;;13.97;51.92;101944.91;12242608;19;20266;-82
2023/09/24 04:00:51;;;;;;;;;;;14.90;49.70;;;13.94;52.16;101950.31;12241629;19;19925;-82
2023/09/24 04:04:53;;;;;;;;;;;14.90;49.70;;;14.02;52.16;101963.09;12243235;19;19915;-82
2023/09/24 04:08:54;;;;;;;;;;;15.00;49.80;;;13.94;52.21;101968.72;12244307;19;20372;-82
2023/09/24 04:13:00;;;;;;;;;;;14.90;49.80;;;13.89;52.10;101962.84;12244995;19;20359;-82
2023/09/24 04:17:02;;;;;;;;;;;14.90;49.70;;;13.88;52.24;101964.63;12241594;19;19915;-82
2023/09/24 04:21:18;;;;;;;;;;;15.00;49.80;;;13.99;52.15;101995.59;12244335;19;19929;-82
2023/09/24 04:25:21;;;;;;;;;;;15.00;49.90;;;13.97;52.28;101991.34;12239866;19;19923;-82
2023/09/24 04:29:23;;;;;;;;;;;15.00;50.00;;;13.96;52.45;101995.75;12242744;19;19982;-82
2023/09/24 04:33:25;;;;;;;;;;;15.00;50.10;;;14.04;52.26;102019.88;12240852;19;19911;-82
2023/09/24 04:37:26;;;;;;;;;;;15.00;50.10;;;13.98;52.43;102019.28;12240804;19;19927;-82
2023/09/24 04:41:28;;;;;;;;;;;15.00;50.30;;;14.02;52.38;102034.00;12235861;19;20371;-82
2023/09/24 04:45:29;;;;;;;;;;;15.00;50.20;;;13.98;52.46;102022.75;12236808;19;19919;-82
2023/09/24 04:49:31;;;;;;;;;;;15.00;50.30;;;14.05;52.47;102039.09;12237526;19;20262;-82
2023/09/24 04:53:33;;;;;;;;;;;15.10;50.30;;;14.08;52.56;102047.66;12239851;19;19990;-82
2023/09/24 04:57:35;;;;;;;;;;;15.10;50.40;;;14.10;52.44;102051.06;12240369;19;19918;-82
2023/09/24 05:01:36;;;;;;;;;;;15.20;50.40;;;14.21;52.46;102071.56;12231435;19;19938;-82
2023/09/24 05:05:44;;;;;;;;;;;15.20;50.50;;;14.26;52.64;102071.34;12236627;19;19945;-82
2023/09/24 05:09:45;;;;;;;;;;;15.30;50.50;;;14.22;52.57;102073.25;12236964;19;20356;-82
2023/09/24 05:13:47;;;;;;;;;;;15.30;50.50;;;14.31;52.70;102087.72;12252262;19;19962;-82
2023/09/24 05:17:48;;;;;;;;;;;15.40;50.50;;;14.41;52.62;102090.75;12251987;19;19919;-82
2023/09/24 05:21:49;;;;;;;;;;;15.50;50.60;;;14.25;52.73;102053.88;12247340;19;19934;-82
2023/09/24 05:25:51;;;;;;;;;;;15.50;50.70;;;14.47;52.85;102093.91;12247546;19;19927;-83
2023/09/24 05:29:52;;;;;;;;;;;15.60;50.60;;;14.53;52.90;102100.72;12250429;19;19935;-83
2023/09/24 05:33:53;;;;;;;;;;;15.60;50.50;;;14.59;52.85;102116.16;12253670;19;19919;-83
2023/09/24 05:37:55;;;;;;;;;;;15.70;50.60;;;14.57;52.90;102110.97;12251217;19;20290;-83
2023/09/24 05:41:56;;;;;;;;;;;15.70;50.60;;;14.62;53.00;102116.00;12247568;19;19974;-83
2023/09/24 05:46:01;;;;;;;;;;;15.80;50.70;;;14.66;52.91;102127.22;12247432;19;19923;-83
2023/09/24 05:50:03;;;;;;;;;;;15.80;50.60;;;14.73;52.78;102147.03;12250716;19;20325;-83
2023/09/24 05:54:05;;;;;;;;;;;15.90;50.70;;;14.74;52.99;102149.59;12250892;19;19959;-83
2023/09/24 05:58:07;;;;;;;;;;;15.90;50.80;;;14.86;52.97;102163.91;12246747;19;19938;-83
2023/09/24 06:02:08;;;;;;;;;;;16.00;50.80;;;14.89;53.02;102161.13;12240101;19;19994;-82
2023/09/24 06:06:10;;;;;;;;;;;16.00;51.20;;;14.91;52.94;102159.25;12245218;19;19922;-83
2023/09/24 06:10:12;;;;;;;;;;;16.10;50.90;;;14.97;53.07;102177.38;12247080;19;19922;-83
2023/09/24 06:14:13;;;;;;;;;;;16.10;50.80;;;14.98;53.04;102175.56;12246398;19;19919;-84
2023/09/24 06:18:15;;;;;;;;;;;16.20;50.90;;;15.08;53.07;102191.75;12249633;19;19930;-83
2023/09/24 06:22:17;;;;;;;;;;;16.20;50.90;;;15.13;53.13;102187.97;12248564;19;19922;-84
2023/09/24 06:26:20;;;;;;;;;;;16.30;50.90;;;15.20;53.24;102186.72;12247642;19;19925;-82
2023/09/24 06:30:21;;;;;;;;;;;16.30;51.00;;;15.20;52.98;102180.59;12246850;19;19922;-83
2023/09/24 06:34:25;;;;;;;;;;;16.40;51.00;;;15.31;53.26;102195.84;12248643;19;19991;-84
2023/09/24 06:38:27;;;;;;;;;;;16.40;51.00;;;15.34;53.08;102199.19;12249313;19;19915;-83
2023/09/24 06:42:29;;;;;;;;;;;16.50;51.00;;;15.40;53.30;102205.91;12245708;19;19927;-83
2023/09/24 06:46:30;;;;;;;;;;;16.60;51.10;;;15.45;53.33;102211.78;12242722;19;20286;-84
2023/09/24 06:50:34;;;;;;;;;;;16.60;51.10;;;15.43;53.28;102195.22;12244890;19;20340;-84
2023/09/24 06:54:36;;;;;;;;;;;16.70;51.10;;;15.36;53.29;102178.88;12248281;19;19922;-83
2023/09/24 06:58:37;;;;;;;;;;;16.70;51.10;;;15.62;53.19;102214.38;12246247;19;20245;-83
2023/09/24 07:02:39;;;;;;;;;;;16.80;51.20;;;15.69;53.21;102226.34;12245116;19;19915;-83
2023/09/24 07:06:42;;;;;;;;;;;16.90;51.30;;;15.75;53.39;102229.56;12245645;19;19914;-83
2023/09/24 07:10:44;;;;;;;;;;;16.90;51.40;;;15.83;53.44;102241.41;12244749;19;19938;-84
2023/09/24 07:14:45;;;;;;;;;;;17.00;51.40;;;15.82;53.49;102233.56;12246502;19;19919;-83
2023/09/24 07:18:49;;;;;;;;;;;17.10;51.50;;;15.82;53.51;102229.16;12246291;19;19918;-82
2023/09/24 07:22:51;;;;;;;;;;;17.10;51.40;;;15.83;53.55;102208.94;12245103;19;19923;-83
2023/09/24 07:26:53;;;;;;;;;;;17.20;51.50;;;16.04;53.36;102239.41;12245140;19;19923;-82
2023/09/24 07:30:55;;;;;;;;;;;17.20;51.40;;;16.14;53.51;102252.94;12242815;19;19942;-83
2023/09/24 07:34:56;;;;;;;;;;;17.30;51.50;;;16.20;53.52;102262.28;12243639;19;19931;-81
2023/09/24 07:38:58;;;;;;;;;;;17.30;51.50;;;16.19;53.41;102250.88;12244695;19;20333;-82
2023/09/24 07:42:59;;;;;;;;;;;17.40;51.50;;;16.19;53.48;102242.13;12238473;19;20300;-84
2023/09/24 07:47:01;;;;;;;;;;;17.40;51.40;;;16.33;53.49;102265.94;12248484;19;19911;-82
2023/09/24 07:51:02;;;;;;;;;;;17.50;51.50;;;16.39;53.57;102273.56;12244169;19;19925;-83
2023/09/24 07:55:05;;;;;;;;;;;17.50;51.40;;;16.38;53.69;102272.66;12247099;19;19923;-83
2023/09/24 07:59:08;;;;;;;;;;;17.60;51.50;;;16.51;53.54;102296.59;12244779;19;19988;-82
2023/09/24 08:03:09;;;;;;;;;;;17.60;51.50;;;16.56;53.55;102291.91;12247384;19;19990;-82
2023/09/24 08:07:11;;;;;;;;;;;17.70;51.60;;;16.65;53.71;102303.72;12246284;19;19927;-83
2023/09/24 08:11:12;;;;;;;;;;;17.80;51.60;;;16.61;53.56;102286.41;12244612;19;19923;-82
2023/09/24 08:15:14;;;;;;;;;;;17.80;51.50;;;16.51;53.73;102269.38;12244292;19;19937;-82
2023/09/24 08:19:15;;;;;;;;;;;17.90;51.50;;;16.76;53.82;102296.06;12243690;19;19923;-82
2023/09/24 08:23:18;;;;;;;;;;;18.00;51.50;;;16.81;53.69;102304.59;12241376;19;19919;-83
2023/09/24 08:27:19;;;;;;;;;;;18.00;51.40;;;16.87;53.70;102315.75;12244455;19;19915;-83
2023/09/24 08:31:25;;;;;;;;;;;18.00;51.40;;;16.92;53.67;102319.00;12243003;19;19946;-82
2023/09/24 08:35:27;;;;;;;;;;;18.10;51.40;;;17.07;53.81;102328.69;12244598;19;19933;-82
2023/09/24 08:39:28;;;;;;;;;;;18.20;51.60;;;17.14;53.77;102330.03;12239727;19;19950;-82
2023/09/24 08:43:30;;;;;;;;;;;18.20;51.50;;;17.20;53.72;102323.53;12247626;19;20329;-82
2023/09/24 08:47:32;;;;;;;;;;;18.30;51.50;;;17.24;53.62;102323.28;12250468;19;19982;-82
2023/09/24 08:51:33;;;;;;;;;;;18.40;51.70;;;17.31;53.82;102320.28;12236718;19;19922;-82
2023/09/24 08:55:36;;;;;;;;;;;18.50;51.60;;;17.47;53.71;102331.66;12253954;19;19921;-82
2023/09/24 08:59:37;;;;;;;;;;;18.60;51.50;;;17.52;53.90;102334.88;12252694;19;19986;-82
2023/09/24 09:03:40;;;;;;;;;;;18.70;51.50;;;17.56;53.89;102328.47;12254201;19;20363;-83
2023/09/24 09:08:02;;;;;;;;;;;18.70;51.50;;;17.70;53.94;102341.72;12254525;19;19933;-83
2023/09/24 09:12:03;;;;;;;;;;;18.80;51.50;;;17.74;53.78;102333.59;12255248;19;19914;-82
2023/09/24 09:16:08;;;;;;;;;;;18.90;51.40;;;17.80;53.81;102341.22;12254356;19;20257;-83
2023/09/24 09:20:09;;;;;;;;;;;19.00;51.60;;;17.91;53.85;102342.25;12249781;19;19919;-82
2023/09/24 09:24:24;;;;;;;;;;;19.10;51.50;;;18.02;53.76;102344.25;12254695;19;19919;-83
2023/09/24 09:28:28;;;;;;;;;;;19.10;51.60;;;18.06;53.68;102343.09;12253145;19;19926;-83
2023/09/24 09:32:36;;;;;;;;;;;19.30;51.50;;;18.16;53.76;102353.16;12251185;19;19986;-83
2023/09/24 09:36:38;;;;;;;;;;;19.30;51.30;;;17.94;53.76;102308.66;12251499;19;19936;-83
2023/09/24 09:40:39;;;;;;;;;;;19.40;51.20;;;18.28;53.68;102344.44;12248984;19;19926;-82
2023/09/24 09:44:42;;;;;;;;;;;19.40;51.20;;;18.34;53.97;102339.63;12248813;19;19926;-82
2023/09/24 09:48:58;;;;;;;;;;;19.60;51.40;;;18.23;54.08;102298.94;12249448;19;19919;-83
2023/09/24 09:53:05;;;;;;;;;;;19.60;51.40;;;18.61;53.72;102338.00;12249992;19;19923;-83
2023/09/24 09:57:07;;;;;;;;;;;19.80;51.30;;;18.71;53.97;102341.75;12251057;19;19914;-82
2023/09/24 10:01:08;;;;;;;;;;;19.90;51.20;;;18.86;53.97;102345.25;12245976;19;19923;-82
2023/09/24 10:05:13;;;;;;;;;;;20.00;51.40;;;18.94;53.68;102327.06;12248198;19;19911;-83
2023/09/24 10:09:27;;;;;;;;;;;20.10;51.20;;;19.13;53.70;102350.56;12249458;19;19927;-82
2023/09/24 10:13:44;;;;;;;;;;;20.30;51.20;;;19.23;54.01;102347.19;12250298;19;19922;-84
2023/09/24 10:17:46;;;;;;;;;;;20.40;51.30;;;19.40;53.97;102350.53;12250572;19;19915;-83
2023/09/24 10:21:47;;;;;;;;;;;20.60;51.00;;;19.52;53.63;102356.81;12246503;19;19940;-82
2023/09/24 10:25:49;;;;;;;;;;;20.70;50.50;;;19.58;53.86;102341.34;12245044;19;19986;-82
2023/09/24 10:29:54;;;;;;;;;;;20.80;50.70;;;19.73;53.75;102355.38;12246946;19;19934;-81
2023/09/24 10:34:03;;;;;;;;;;;20.90;50.70;;;19.81;54.00;102341.63;12249458;19;19923;-82
2023/09/24 10:38:04;;;;;;;;;;;21.00;50.70;;;19.97;54.03;102347.56;12248636;19;19922;-83
2023/09/24 10:42:08;;;;;;;;;;;21.10;50.80;;;20.13;53.85;102355.31;12248323;19;19930;-82
2023/09/24 10:46:26;;;;;;;;;;;21.30;50.70;;;20.23;53.90;102345.75;12247497;19;19914;-81
2023/09/24 10:50:27;;;;;;;;;;;21.50;50.60;;;20.24;53.74;102328.84;12245684;19;19926;-82
2023/09/24 10:54:29;;;;;;;;;;;21.50;50.40;;;20.46;53.94;102336.13;12241883;19;19915;-81
2023/09/24 10:58:30;;;;;;;;;;;21.60;50.40;;;20.53;53.61;102333.91;12246683;19;19915;-82
2023/09/24 11:02:31;;;;;;;;;;;21.80;50.50;;;20.58;53.51;102331.81;12248195;19;19950;-83
2023/09/24 11:06:33;;;;;;;;;;;21.90;50.20;;;20.70;53.63;102336.22;12247325;19;19943;-81
2023/09/24 11:10:35;;;;;;;;;;;21.90;49.80;;;20.75;53.59;102335.88;12243539;19;19915;-82
2023/09/24 11:14:36;;;;;;;;;;;22.10;50.00;;;20.74;53.46;102344.81;12247443;19;19998;-82
2023/09/24 11:18:46;;;;;;;;;;;22.10;49.40;;;20.80;53.40;102348.84;12243996;19;19919;-81
2023/09/24 11:23:06;;;;;;;;;;;22.00;49.50;;;20.83;53.09;102348.63;12242841;19;20356;-82
2023/09/24 11:27:08;;;;;;;;;;;22.10;49.40;;;20.90;53.12;102352.50;12241645;19;19919;-82
2023/09/24 11:31:09;;;;;;;;;;;22.10;49.30;;;20.99;53.31;102349.19;12237578;19;20280;-82
2023/09/24 11:35:13;;;;;;;;;;;22.10;49.40;;;21.04;53.47;102341.72;12242991;19;19937;-81
2023/09/24 11:44:00;;;;;;;;;;;22.30;49.50;;;21.26;53.40;102345.44;12176822;19;19930;-84
2023/09/24 11:48:03;;;;;;;;;;;22.40;49.50;;;21.35;53.43;102350.06;12233401;19;19915;-83
2023/09/24 11:52:09;;;;;;;;;;;22.40;49.20;;;21.42;52.92;102346.03;12226511;19;20016;-83
2023/09/24 11:56:13;;;;;;;;;;;22.60;49.30;;;21.53;53.01;102359.34;12235344;19;19919;-83
2023/09/24 12:00:14;;;;;;;;;;;22.60;49.40;;;21.48;52.98;102334.91;12240339;19;20302;-83
2023/09/24 12:04:16;;;;;;;;;;;22.70;49.30;;;21.34;52.88;102320.00;12238859;19;19990;-86
2023/09/24 12:08:17;;;;;;;;;;;22.70;49.20;;;21.36;53.03;102314.53;12242861;19;19987;-84
2023/09/24 12:12:19;;;;;;;;;;;22.70;48.90;;;21.40;52.73;102313.38;12244578;19;19910;-81
2023/09/24 12:16:21;;;;;;;;;;;22.70;48.70;;;21.62;52.81;102348.00;12247016;19;20027;-84
2023/09/24 12:20:23;;;;;;;;;;;22.70;48.30;;;21.65;52.87;102338.94;12254520;19;19922;-82
2023/09/24 12:24:25;;;;;;;;;;;22.80;49.00;;;21.76;52.54;102341.63;12254398;19;19930;-83
2023/09/24 12:28:28;;;;;;;;;;;22.90;46.70;;;21.57;52.89;102307.63;12257902;19;19923;-83
2023/09/24 12:32:30;;;;;;;;;;;22.90;48.60;;;21.92;52.73;102343.94;12244434;19;20353;-83
2023/09/24 12:36:31;;;;;;;;;;;23.00;48.90;;;21.87;52.48;102330.16;12257440;19;20271;-83
2023/09/24 12:40:33;;;;;;;;;;;23.00;48.80;;;21.96;52.68;102337.44;12250809;19;20356;-82
2023/09/24 12:44:35;;;;;;;;;;;23.10;47.90;;;22.08;52.61;102348.91;12252437;19;19915;-82
2023/09/24 12:48:37;;;;;;;;;;;23.10;46.40;;;21.91;52.57;102317.47;12255381;19;19930;-82
2023/09/24 12:52:44;;;;;;;;;;;23.20;48.10;;;22.17;52.19;102347.34;12253910;19;19929;-83
2023/09/24 12:56:46;;;;;;;;;;;23.20;47.50;;;22.16;52.42;102343.00;12256920;19;19922;-84
2023/09/24 13:00:48;;;;;;;;;;;23.30;48.20;;;22.27;52.45;102353.69;12254207;19;19926;-83
2023/09/24 13:04:49;;;;;;;;;;;23.30;46.20;;;22.27;52.20;102353.69;12252828;19;20253;-84
2023/09/24 13:08:51;;;;;;;;;;;23.30;47.00;;;22.25;52.26;102344.97;12257407;19;20322;-83
2023/09/24 13:12:53;;;;;;;;;;;23.30;47.20;;;22.27;51.77;102337.72;12253326;19;19923;-83
2023/09/24 13:16:58;;;;;;;;;;;23.30;48.10;;;22.21;51.87;102335.53;12246637;19;19957;-84
2023/09/24 13:21:07;;;;;;;;;;;23.30;47.70;;;22.17;52.08;102331.38;12259448;19;20262;-85
2023/09/24 13:25:09;;;;;;;;;;;23.30;47.60;;;22.21;51.61;102336.38;12255698;19;19926;-83
2023/09/24 13:29:10;;;;;;;;;;;23.20;47.80;;;22.28;51.73;102344.75;12218526;19;19915;-84
2023/09/24 13:33:11;;;;;;;;;;;23.20;47.90;;;22.09;51.66;102316.88;12247167;19;19930;-83
2023/09/24 13:37:13;;;;;;;;;;;23.20;47.90;;;22.25;51.80;102339.63;12251217;19;19923;-83
2023/09/24 13:41:14;;;;;;;;;;;23.20;47.70;;;21.84;51.75;102279.88;12249127;19;19915;-83
2023/09/24 13:45:16;;;;;;;;;;;23.20;47.90;;;22.18;51.30;102327.78;12251042;19;20319;-83
2023/09/24 13:49:18;;;;;;;;;;;23.20;47.90;;;22.23;51.35;102342.44;12252662;19;19943;-84
2023/09/24 13:53:21;;;;;;;;;;;23.20;48.10;;;21.95;51.33;102292.31;12259524;19;19926;-83
2023/09/24 13:57:22;;;;;;;;;;;23.20;47.90;;;22.18;51.12;102333.09;12252009;19;19943;-83
2023/09/24 14:01:27;;;;;;;;;;;23.20;47.90;;;22.02;51.55;102296.19;12257549;19;20262;-85
2023/09/24 14:05:31;;;;;;;;;;;23.20;48.00;;;22.00;51.09;102293.66;12237870;19;19915;-82
2023/09/24 14:13:53;;;;;;;;;;;23.10;47.80;;;22.26;51.22;102325.38;12255330;19;19927;-82
2023/09/24 14:17:54;;;;;;;;;;;23.20;47.80;;;21.97;51.01;102263.78;12258758;19;20337;-84
2023/09/24 14:21:57;;;;;;;;;;;23.20;47.80;;;22.29;51.01;102323.31;12250508;19;19935;-82
2023/09/24 14:25:58;;;;;;;;;;;23.20;47.90;;;22.29;51.19;102325.97;12243815;19;20245;-83
2023/09/24 14:29:59;;;;;;;;;;;23.20;47.70;;;22.29;50.90;102310.00;12244974;19;19997;-83
2023/09/24 14:34:01;;;;;;;;;;;23.20;47.40;;;22.30;50.90;102310.84;12248939;19;20337;-83
2023/09/24 14:38:03;;;;;;;;;;;23.20;47.50;;;22.31;50.82;102313.41;12248172;19;20370;-83
2023/09/24 14:42:05;;;;;;;;;;;23.20;47.40;;;22.33;50.93;102323.06;12244194;19;20534;-84
2023/09/24 14:46:07;;;;;;;;;;;23.20;47.60;;;22.28;50.99;102310.97;12246663;19;19919;-83
2023/09/24 14:50:09;;;;;;;;;;;23.20;47.70;;;22.30;50.77;102317.03;12248361;19;19915;-83
2023/09/24 14:54:10;;;;;;;;;;;23.20;47.70;;;22.27;50.67;102322.56;12248917;19;19990;-83
2023/09/24 14:58:12;;;;;;;;;;;23.20;47.40;;;22.30;50.89;102321.50;12244086;19;19998;-83
2023/09/24 15:02:13;;;;;;;;;;;23.20;48.00;;;22.29;50.85;102319.81;12247977;19;19918;-83
2023/09/24 15:06:14;;;;;;;;;;;23.20;47.70;;;22.28;50.85;102326.13;12235063;19;20361;-82
2023/09/24 15:10:16;;;;;;;;;;;23.20;47.70;;;22.29;50.82;102325.13;12242475;19;19946;-82
2023/09/24 15:14:19;;;;;;;;;;;23.10;47.60;;;22.25;50.65;102319.22;12221888;19;20324;-82
2023/09/24 15:18:21;;;;;;;;;;;23.20;47.60;;;22.27;50.82;102327.91;12236204;19;19918;-82
2023/09/24 15:22:23;;;;;;;;;;;23.20;47.70;;;22.21;50.79;102314.25;12238197;19;20309;-82
2023/09/24 15:26:24;;;;;;;;;;;23.20;47.70;;;22.06;50.75;102289.66;12238872;19;19930;-83
2023/09/24 15:30:26;;;;;;;;;;;23.20;47.70;;;22.27;50.48;102325.25;12236576;19;19991;-83
2023/09/24 15:34:28;;;;;;;;;;;23.20;47.70;;;21.96;50.82;102278.91;12233219;19;19921;-83
2023/09/24 15:38:31;;;;;;;;;;;23.20;47.80;;;22.19;50.49;102316.19;12233986;19;19930;-82
2023/09/24 15:42:35;;;;;;;;;;;23.20;47.80;;;22.06;50.75;102298.50;12234972;19;19926;-83
2023/09/24 15:46:37;;;;;;;;;;;23.20;47.70;;;22.26;50.82;102328.88;12237164;19;19942;-82
2023/09/24 15:50:43;;;;;;;;;;;23.20;47.70;;;22.29;50.78;102338.44;12235641;19;19929;-82
2023/09/24 15:54:45;;;;;;;;;;;23.20;47.70;;;22.22;50.76;102335.41;12236202;19;20024;-83
2023/09/24 15:58:49;;;;;;;;;;;23.20;47.80;;;22.25;50.67;102339.63;12236974;19;19915;-82
2023/09/24 16:02:51;;;;;;;;;;;23.10;47.90;;;22.20;50.62;102337.38;12232666;19;20340;-82
2023/09/24 16:06:56;;;;;;;;;;;23.10;48.00;;;22.18;50.27;102343.75;12234043;19;20205;-83
2023/09/24 16:10:57;;;;;;;;;;;23.10;48.10;;;22.13;50.57;102352.06;12238088;19;19918;-83
2023/09/24 16:14:59;;;;;;;;;;;23.00;48.20;;;22.07;50.28;102348.09;12237860;19;20266;-84
2023/09/24 16:19:01;;;;;;;;;;;23.00;48.20;;;22.02;50.56;102354.72;12232312;19;20697;-82
2023/09/24 16:23:03;;;;;;;;;;;22.90;48.20;;;21.94;50.56;102351.81;12231643;19;19923;-81
2023/09/24 16:27:04;;;;;;;;;;;22.80;48.20;;;;;;12227889;19;20356;-80
2023/09/24 16:31:06;;;;;;;;;;;22.70;48.20;;;21.73;50.28;102356.97;12226258;19;19935;-82
2023/09/24 16:35:08;;;;;;;;;;;22.60;48.10;;;21.61;50.00;102348.97;12235292;19;20338;-82
2023/09/24 16:39:10;;;;;;;;;;;22.40;48.10;;;21.23;50.05;102297.84;12234270;19;19930;-81
2023/09/24 16:43:11;;;;;;;;;;;22.40;48.20;;;21.44;50.41;102346.72;12236773;19;20339;-81
2023/09/24 16:47:13;;;;;;;;;;;22.20;48.20;;;21.33;50.35;102347.53;12236485;19;19915;-81
2023/09/24 16:51:14;;;;;;;;;;;22.20;48.20;;;21.27;50.49;102347.13;12235755;19;20344;-81
2023/09/24 16:55:16;;;;;;;;;;;22.10;48.20;;;21.14;49.95;102358.69;12234984;19;20282;-82
2023/09/24 16:59:19;;;;;;;;;;;21.90;48.20;;;21.08;50.27;102359.13;12236333;19;19927;-82
2023/09/24 17:03:20;;;;;;;;;;;21.90;48.20;;;21.01;49.97;102368.53;12234388;19;19958;-82
2023/09/24 17:07:21;;;;;;;;;;;21.80;48.20;;;20.89;49.99;102364.09;12241298;19;19923;-82
2023/09/24 17:11:23;;;;;;;;;;;21.60;48.10;;;20.83;50.19;102372.53;12242628;19;19919;-82
2023/09/24 17:15:29;;;;;;;;;;;21.50;48.10;;;20.73;50.32;102386.44;12246173;19;19918;-81
2023/09/24 17:19:30;;;;;;;;;;;21.40;48.20;;;20.60;50.31;102376.81;12242821;19;19947;-82
2023/09/24 17:23:32;;;;;;;;;;;21.30;48.20;;;20.53;50.17;102385.22;12241677;19;19919;-82
2023/09/24 17:27:34;;;;;;;;;;;21.20;48.60;;;20.44;49.94;102390.28;12244712;19;19950;-81
2023/09/24 17:31:35;;;;;;;;;;;21.10;48.20;;;20.31;49.89;102385.84;12243395;19;19949;-82
2023/09/24 17:35:37;;;;;;;;;;;21.00;48.20;;;20.23;49.99;102404.13;12237429;19;20353;-82
2023/09/24 17:39:39;;;;;;;;;;;20.90;48.20;;;20.05;49.88;102389.47;12237041;19;20368;-82
2023/09/24 17:43:41;;;;;;;;;;;20.80;48.20;;;20.01;49.78;102415.34;12236169;19;19937;-82
2023/09/24 17:47:45;;;;;;;;;;;20.70;48.20;;;19.87;49.89;102413.66;12239119;19;19922;-83
2023/09/24 17:51:46;;;;;;;;;;;20.50;48.20;;;19.79;49.77;102417.75;12233866;19;19931;-81
2023/09/24 17:55:52;;;;;;;;;;;20.50;48.20;;;19.67;49.80;102420.25;12239999;19;19910;-82
2023/09/24 17:59:54;;;;;;;;;;;20.30;48.20;;;19.59;50.05;102424.34;12236791;19;19926;-82
2023/09/24 18:03:55;;;;;;;;;;;20.20;48.20;;;19.48;49.80;102427.72;12234829;19;20312;-82
2023/09/24 18:07:58;;;;;;;;;;;20.10;48.30;;;19.42;50.32;102423.66;12241244;19;19946;-81
2023/09/24 18:11:59;;;;;;;;;;;20.00;48.30;;;19.32;50.00;102421.72;12237045;19;20256;-81
2023/09/24 18:16:01;;;;;;;;;;;19.90;48.30;;;19.21;49.95;102425.91;12236116;19;19923;-82
2023/09/24 18:20:04;;;;;;;;;;;19.90;48.80;;;19.14;49.95;102426.41;12233022;19;19923;-82